PSTLF UAAA-UTDD
Flight info
| Callsign | PSTLF |
|---|---|
| Flight time | 1h 36m |
| Altitude | 30000 |
| Route | LAKEL1F LAKEL L135 VADER B350 JD JD8 |
| Aircraft | B734/M-SDE2E3FHIRW/S |
Departure
| Time | 2026-04-27 17:37 |
|---|---|
| Airport | Almaty International Airport (UAAA) |
Arrival
| Time | 2026-04-27 19:13 |
|---|---|
| Airport | Dushanbe International Airport (UTDD) |
| Time | Latitude | Longitude | Altitude | Speed | Heading |
|---|---|---|---|---|---|
| 2026-04-27 17:13 | 43.34840 | 77.02123 | 2212 ft | 0 kts | 184° |
| 2026-04-27 17:29 | 43.34839 | 77.02123 | 2212 ft | 0 kts | 184° |
| 2026-04-27 17:30 | 43.34835 | 77.02122 | 2212 ft | 0 kts | 184° |
| 2026-04-27 17:30 | 43.34823 | 77.02122 | 2212 ft | 2 kts | 177° |
| 2026-04-27 17:30 | 43.34803 | 77.02128 | 2212 ft | 1 kts | 147° |
| 2026-04-27 17:31 | 43.34793 | 77.02145 | 2213 ft | 4 kts | 117° |
| 2026-04-27 17:31 | 43.34784 | 77.02202 | 2213 ft | 4 kts | 94° |
| 2026-04-27 17:31 | 43.34784 | 77.02261 | 2215 ft | 7 kts | 91° |
| 2026-04-27 17:31 | 43.34782 | 77.02354 | 2216 ft | 11 kts | 95° |
| 2026-04-27 17:32 | 43.34775 | 77.02484 | 2216 ft | 16 kts | 93° |
| 2026-04-27 17:32 | 43.34917 | 77.02887 | 2214 ft | 31 kts | 55° |
| 2026-04-27 17:32 | 43.35058 | 77.03169 | 2214 ft | 39 kts | 55° |
| 2026-04-27 17:33 | 43.35226 | 77.03507 | 2217 ft | 45 kts | 55° |
| 2026-04-27 17:33 | 43.35412 | 77.03886 | 2221 ft | 51 kts | 57° |
| 2026-04-27 17:33 | 43.35623 | 77.04311 | 2222 ft | 55 kts | 55° |
| 2026-04-27 17:33 | 43.35849 | 77.04765 | 2225 ft | 59 kts | 57° |
| 2026-04-27 17:34 | 43.36090 | 77.05248 | 2225 ft | 62 kts | 57° |
| 2026-04-27 17:34 | 43.36341 | 77.05755 | 2226 ft | 65 kts | 55° |
| 2026-04-27 17:34 | 43.36599 | 77.06274 | 2229 ft | 56 kts | 57° |
| 2026-04-27 17:34 | 43.36805 | 77.06709 | 2226 ft | 53 kts | 59° |
| 2026-04-27 17:35 | 43.36955 | 77.06957 | 2222 ft | 24 kts | 25° |
| 2026-04-27 17:35 | 43.37002 | 77.07051 | 2222 ft | 10 kts | 181° |
| 2026-04-27 17:35 | 43.36954 | 77.06998 | 2222 ft | 8 kts | 231° |
| 2026-04-27 17:35 | 43.36922 | 77.06937 | 2223 ft | 9 kts | 234° |
| 2026-04-27 17:36 | 43.36829 | 77.06748 | 2225 ft | 49 kts | 236° |
| 2026-04-27 17:36 | 43.36505 | 77.06095 | 2230 ft | 113 kts | 236° |
| 2026-04-27 17:36 | 43.35947 | 77.04967 | 2226 ft | 169 kts | 236° |
| 2026-04-27 17:36 | 43.35252 | 77.03515 | 2571 ft | 188 kts | 237° |
| 2026-04-27 17:37 | 43.34522 | 77.02020 | 3182 ft | 194 kts | 235° |
| 2026-04-27 17:37 | 43.33717 | 77.00414 | 3411 ft | 218 kts | 236° |
| 2026-04-27 17:37 | 43.32831 | 76.98561 | 3717 ft | 239 kts | 244° |
| 2026-04-27 17:37 | 43.32563 | 76.96268 | 4148 ft | 252 kts | 280° |
| 2026-04-27 17:38 | 43.33274 | 76.94089 | 4650 ft | 261 kts | 313° |
| 2026-04-27 17:38 | 43.34707 | 76.92473 | 5240 ft | 269 kts | 323° |
| 2026-04-27 17:38 | 43.36198 | 76.90927 | 5934 ft | 272 kts | 323° |
| 2026-04-27 17:38 | 43.37722 | 76.89356 | 6662 ft | 274 kts | 323° |
| 2026-04-27 17:39 | 43.39247 | 76.87791 | 7367 ft | 277 kts | 323° |
| 2026-04-27 17:39 | 43.40806 | 76.86195 | 8067 ft | 279 kts | 323° |
| 2026-04-27 17:39 | 43.42361 | 76.84603 | 8744 ft | 281 kts | 323° |
| 2026-04-27 17:39 | 43.43940 | 76.82989 | 9410 ft | 283 kts | 323° |
| 2026-04-27 17:40 | 43.45490 | 76.81337 | 9838 ft | 289 kts | 315° |
| 2026-04-27 17:40 | 43.46528 | 76.78974 | 10168 ft | 289 kts | 291° |
| 2026-04-27 17:40 | 43.47275 | 76.76304 | 10314 ft | 311 kts | 291° |
| 2026-04-27 17:40 | 43.48088 | 76.73469 | 10414 ft | 332 kts | 292° |
| 2026-04-27 17:41 | 43.48964 | 76.70461 | 10840 ft | 341 kts | 292° |
| 2026-04-27 17:41 | 43.49856 | 76.67421 | 11435 ft | 345 kts | 292° |
| 2026-04-27 17:41 | 43.50761 | 76.64343 | 12068 ft | 347 kts | 292° |
| 2026-04-27 17:41 | 43.51682 | 76.61221 | 12679 ft | 350 kts | 292° |
| 2026-04-27 17:42 | 43.52693 | 76.58224 | 13236 ft | 353 kts | 304° |
| 2026-04-27 17:42 | 43.54488 | 76.55893 | 13785 ft | 357 kts | 330° |
| 2026-04-27 17:42 | 43.56832 | 76.54846 | 14294 ft | 363 kts | 350° |
| 2026-04-27 17:42 | 43.59328 | 76.54300 | 14823 ft | 366 kts | 349° |
| 2026-04-27 17:43 | 43.61842 | 76.53645 | 15363 ft | 368 kts | 347° |
| 2026-04-27 17:43 | 43.64343 | 76.52917 | 15881 ft | 370 kts | 346° |
| 2026-04-27 17:43 | 43.66894 | 76.52495 | 16351 ft | 376 kts | 3° |
| 2026-04-27 17:43 | 43.69428 | 76.53500 | 16791 ft | 384 kts | 28° |
| 2026-04-27 17:44 | 43.71461 | 76.55895 | 17208 ft | 392 kts | 52° |
| 2026-04-27 17:44 | 43.72654 | 76.59270 | 17632 ft | 397 kts | 72° |
| 2026-04-27 17:44 | 43.73538 | 76.62953 | 18095 ft | 400 kts | 70° |
| 2026-04-27 17:44 | 43.73989 | 76.66737 | 18521 ft | 404 kts | 93° |
| 2026-04-27 17:45 | 43.73347 | 76.70498 | 18910 ft | 406 kts | 117° |
| 2026-04-27 17:45 | 43.71697 | 76.73623 | 19308 ft | 406 kts | 140° |
| 2026-04-27 17:45 | 43.69375 | 76.75872 | 19731 ft | 407 kts | 148° |
| 2026-04-27 17:45 | 43.67105 | 76.78226 | 20161 ft | 411 kts | 141° |
| 2026-04-27 17:46 | 43.64971 | 76.80868 | 20581 ft | 414 kts | 138° |
| 2026-04-27 17:46 | 43.62914 | 76.83644 | 21018 ft | 417 kts | 136° |
| 2026-04-27 17:46 | 43.60862 | 76.86512 | 21446 ft | 419 kts | 136° |
| 2026-04-27 17:46 | 43.58844 | 76.89372 | 21845 ft | 421 kts | 136° |
| 2026-04-27 17:47 | 43.56786 | 76.92302 | 22239 ft | 424 kts | 136° |
| 2026-04-27 17:47 | 43.55356 | 76.94170 | 22479 ft | 424 kts | 144° |
| 2026-04-27 17:47 | 43.51818 | 76.96293 | 22945 ft | 417 kts | 174° |
| 2026-04-27 17:47 | 43.48980 | 76.96148 | 23249 ft | 413 kts | 197° |
| 2026-04-27 17:48 | 43.46202 | 76.95038 | 23594 ft | 415 kts | 197° |
| 2026-04-27 17:48 | 43.43354 | 76.94201 | 23958 ft | 419 kts | 192° |
| 2026-04-27 17:48 | 43.40461 | 76.93639 | 24313 ft | 422 kts | 189° |
| 2026-04-27 17:48 | 43.37531 | 76.93201 | 24659 ft | 424 kts | 188° |
| 2026-04-27 17:49 | 43.34619 | 76.92816 | 24995 ft | 426 kts | 188° |
| 2026-04-27 17:49 | 43.31668 | 76.92448 | 25315 ft | 429 kts | 188° |
| 2026-04-27 17:49 | 43.28661 | 76.92080 | 25645 ft | 431 kts | 188° |
| 2026-04-27 17:49 | 43.25675 | 76.91718 | 25979 ft | 432 kts | 188° |
| 2026-04-27 17:50 | 43.22688 | 76.91357 | 26300 ft | 434 kts | 188° |
| 2026-04-27 17:50 | 43.17169 | 76.88637 | 26852 ft | 426 kts | 223° |
| 2026-04-27 17:50 | 43.14932 | 76.85915 | 27135 ft | 428 kts | 223° |
| 2026-04-27 17:51 | 43.12655 | 76.83298 | 27510 ft | 428 kts | 221° |
| 2026-04-27 17:51 | 43.10303 | 76.80776 | 27966 ft | 426 kts | 220° |
| 2026-04-27 17:51 | 43.07959 | 76.78341 | 28433 ft | 423 kts | 219° |
| 2026-04-27 17:51 | 43.05614 | 76.75935 | 28843 ft | 422 kts | 219° |
| 2026-04-27 17:52 | 43.03252 | 76.73525 | 29158 ft | 422 kts | 219° |
| 2026-04-27 17:52 | 43.00893 | 76.71124 | 29449 ft | 423 kts | 219° |
| 2026-04-27 17:52 | 42.98542 | 76.68733 | 29793 ft | 422 kts | 219° |
| 2026-04-27 17:52 | 42.96965 | 76.67133 | 30012 ft | 422 kts | 219° |
| 2026-04-27 17:53 | 42.93840 | 76.63963 | 30176 ft | 418 kts | 219° |
| 2026-04-27 17:53 | 42.91519 | 76.61613 | 30188 ft | 415 kts | 219° |
| 2026-04-27 17:53 | 42.86892 | 76.56949 | 30143 ft | 410 kts | 218° |
| 2026-04-27 17:54 | 42.82318 | 76.52332 | 30182 ft | 411 kts | 219° |
| 2026-04-27 17:54 | 42.77707 | 76.47675 | 30190 ft | 412 kts | 219° |
| 2026-04-27 17:55 | 42.73110 | 76.43037 | 30188 ft | 412 kts | 219° |
| 2026-04-27 17:55 | 42.68514 | 76.38409 | 30189 ft | 412 kts | 218° |
| 2026-04-27 17:56 | 42.63889 | 76.33759 | 30174 ft | 412 kts | 218° |
| 2026-04-27 17:56 | 42.59244 | 76.29093 | 30154 ft | 420 kts | 218° |
| 2026-04-27 17:57 | 42.54559 | 76.24405 | 30218 ft | 413 kts | 218° |
| 2026-04-27 17:57 | 42.49963 | 76.19814 | 30188 ft | 409 kts | 218° |
| 2026-04-27 17:58 | 42.45362 | 76.15227 | 30181 ft | 410 kts | 218° |
| 2026-04-27 17:58 | 42.41380 | 76.09869 | 30189 ft | 406 kts | 237° |
| 2026-04-27 17:59 | 42.38258 | 76.03476 | 30189 ft | 408 kts | 237° |
| 2026-04-27 17:59 | 42.35050 | 75.97100 | 30192 ft | 408 kts | 236° |
| 2026-04-27 18:00 | 42.31853 | 75.90814 | 30188 ft | 407 kts | 236° |
| 2026-04-27 18:00 | 42.28634 | 75.84506 | 30184 ft | 407 kts | 236° |
| 2026-04-27 18:01 | 42.25412 | 75.78210 | 30187 ft | 407 kts | 236° |
| 2026-04-27 18:01 | 42.22169 | 75.71882 | 30191 ft | 407 kts | 236° |
| 2026-04-27 18:02 | 42.18964 | 75.65642 | 30185 ft | 407 kts | 236° |
| 2026-04-27 18:02 | 42.15725 | 75.59347 | 30187 ft | 408 kts | 236° |
| 2026-04-27 18:03 | 42.12464 | 75.53026 | 30167 ft | 407 kts | 236° |
| 2026-04-27 18:03 | 42.09230 | 75.46771 | 30127 ft | 407 kts | 236° |
| 2026-04-27 18:04 | 42.06007 | 75.40546 | 30093 ft | 406 kts | 236° |
| 2026-04-27 18:04 | 42.03307 | 75.35344 | 30064 ft | 406 kts | 236° |
| 2026-04-27 18:05 | 41.99515 | 75.28033 | 30051 ft | 406 kts | 236° |
| 2026-04-27 18:05 | 41.96263 | 75.21788 | 30053 ft | 406 kts | 236° |
| 2026-04-27 18:06 | 41.93024 | 75.15585 | 30052 ft | 406 kts | 236° |
| 2026-04-27 18:06 | 41.89754 | 75.09338 | 30049 ft | 406 kts | 236° |
| 2026-04-27 18:07 | 41.86459 | 75.03092 | 30053 ft | 406 kts | 236° |
| 2026-04-27 18:07 | 41.83207 | 74.96915 | 30054 ft | 406 kts | 236° |
| 2026-04-27 18:08 | 41.79924 | 74.90682 | 30054 ft | 406 kts | 236° |
| 2026-04-27 18:08 | 41.76605 | 74.84454 | 30053 ft | 406 kts | 235° |
| 2026-04-27 18:09 | 41.73278 | 74.78233 | 30054 ft | 407 kts | 236° |
| 2026-04-27 18:09 | 41.69988 | 74.72037 | 30056 ft | 406 kts | 236° |
| 2026-04-27 18:10 | 41.66709 | 74.65867 | 30053 ft | 406 kts | 236° |
| 2026-04-27 18:10 | 41.63420 | 74.59681 | 30054 ft | 406 kts | 236° |
| 2026-04-27 18:11 | 41.60149 | 74.53539 | 30051 ft | 406 kts | 236° |
| 2026-04-27 18:11 | 41.56859 | 74.47375 | 30053 ft | 407 kts | 236° |
| 2026-04-27 18:12 | 41.53548 | 74.41183 | 30053 ft | 407 kts | 236° |
| 2026-04-27 18:12 | 41.50242 | 74.35014 | 30055 ft | 406 kts | 236° |
| 2026-04-27 18:13 | 41.46951 | 74.28886 | 30052 ft | 406 kts | 235° |
| 2026-04-27 18:13 | 41.43624 | 74.22704 | 30052 ft | 407 kts | 235° |
| 2026-04-27 18:14 | 41.40322 | 74.16585 | 30056 ft | 407 kts | 235° |
| 2026-04-27 18:14 | 41.36998 | 74.10435 | 30051 ft | 406 kts | 235° |
| 2026-04-27 18:15 | 41.33673 | 74.04298 | 30051 ft | 406 kts | 235° |
| 2026-04-27 18:15 | 41.30349 | 73.98178 | 30054 ft | 407 kts | 235° |
| 2026-04-27 18:16 | 41.27032 | 73.92076 | 30056 ft | 407 kts | 235° |
| 2026-04-27 18:16 | 41.23698 | 73.85938 | 30053 ft | 406 kts | 235° |
| 2026-04-27 18:17 | 41.20370 | 73.79821 | 30054 ft | 406 kts | 235° |
| 2026-04-27 18:17 | 41.17046 | 73.73722 | 30053 ft | 407 kts | 235° |
| 2026-04-27 18:18 | 41.13729 | 73.67648 | 30055 ft | 406 kts | 235° |
| 2026-04-27 18:18 | 41.10384 | 73.61534 | 30052 ft | 406 kts | 235° |
| 2026-04-27 18:19 | 41.07049 | 73.55454 | 30054 ft | 407 kts | 235° |
| 2026-04-27 18:19 | 41.03718 | 73.49389 | 30053 ft | 408 kts | 235° |
| 2026-04-27 18:20 | 41.00370 | 73.43308 | 30055 ft | 408 kts | 235° |
| 2026-04-27 18:20 | 40.97012 | 73.37220 | 30054 ft | 409 kts | 234° |
| 2026-04-27 18:21 | 40.93382 | 73.31409 | 30043 ft | 409 kts | 230° |
| 2026-04-27 18:21 | 40.89710 | 73.25647 | 30050 ft | 410 kts | 230° |
| 2026-04-27 18:22 | 40.86030 | 73.19886 | 30053 ft | 409 kts | 230° |
| 2026-04-27 18:22 | 40.82366 | 73.14136 | 30055 ft | 409 kts | 230° |
| 2026-04-27 18:23 | 40.78693 | 73.08374 | 30056 ft | 408 kts | 231° |
| 2026-04-27 18:23 | 40.75054 | 73.02676 | 30052 ft | 407 kts | 231° |
| 2026-04-27 18:24 | 40.71395 | 72.96955 | 30052 ft | 407 kts | 231° |
| 2026-04-27 18:24 | 40.67745 | 72.91261 | 30057 ft | 406 kts | 231° |
| 2026-04-27 18:25 | 40.64085 | 72.85560 | 30051 ft | 407 kts | 231° |
| 2026-04-27 18:25 | 40.60447 | 72.79848 | 30051 ft | 406 kts | 234° |
| 2026-04-27 18:26 | 40.57309 | 72.73679 | 30052 ft | 406 kts | 238° |
| 2026-04-27 18:26 | 40.54201 | 72.67454 | 30055 ft | 406 kts | 237° |
| 2026-04-27 18:27 | 40.51075 | 72.61238 | 30054 ft | 406 kts | 237° |
| 2026-04-27 18:27 | 40.47947 | 72.55039 | 30051 ft | 406 kts | 237° |
| 2026-04-27 18:28 | 40.44820 | 72.48855 | 30043 ft | 406 kts | 237° |
| 2026-04-27 18:28 | 40.41678 | 72.42651 | 30021 ft | 406 kts | 237° |
| 2026-04-27 18:29 | 40.38540 | 72.36471 | 29999 ft | 407 kts | 237° |
| 2026-04-27 18:29 | 40.35405 | 72.30294 | 29971 ft | 406 kts | 237° |
| 2026-04-27 18:30 | 40.32259 | 72.24110 | 29957 ft | 407 kts | 236° |
| 2026-04-27 18:30 | 40.29100 | 72.17924 | 29944 ft | 407 kts | 237° |
| 2026-04-27 18:31 | 40.25959 | 72.11784 | 29946 ft | 406 kts | 237° |
| 2026-04-27 18:31 | 40.22575 | 72.05846 | 29945 ft | 407 kts | 232° |
| 2026-04-27 18:32 | 40.19059 | 72.00016 | 29946 ft | 407 kts | 232° |
| 2026-04-27 18:32 | 40.15560 | 71.94174 | 29943 ft | 407 kts | 233° |
| 2026-04-27 18:33 | 40.12078 | 71.88362 | 29945 ft | 407 kts | 233° |
| 2026-04-27 18:33 | 40.08567 | 71.82511 | 29947 ft | 407 kts | 233° |
| 2026-04-27 18:34 | 40.05062 | 71.76682 | 29948 ft | 407 kts | 233° |
| 2026-04-27 18:34 | 40.01572 | 71.70887 | 29943 ft | 407 kts | 233° |
| 2026-04-27 18:35 | 39.98073 | 71.65088 | 29947 ft | 407 kts | 233° |
| 2026-04-27 18:35 | 39.94581 | 71.59313 | 29946 ft | 407 kts | 233° |
| 2026-04-27 18:36 | 39.91057 | 71.53494 | 29943 ft | 407 kts | 233° |
| 2026-04-27 18:36 | 39.87539 | 71.47717 | 29939 ft | 407 kts | 232° |
| 2026-04-27 18:37 | 39.84034 | 71.41972 | 29946 ft | 407 kts | 233° |
| 2026-04-27 18:37 | 39.80522 | 71.36208 | 29945 ft | 407 kts | 233° |
| 2026-04-27 18:38 | 39.76990 | 71.30403 | 29945 ft | 407 kts | 232° |
| 2026-04-27 18:38 | 39.73476 | 71.24675 | 29944 ft | 407 kts | 232° |
| 2026-04-27 18:39 | 39.69952 | 71.18955 | 29947 ft | 407 kts | 232° |
| 2026-04-27 18:39 | 39.66383 | 71.13142 | 29945 ft | 407 kts | 232° |
| 2026-04-27 18:40 | 39.62851 | 71.07394 | 29947 ft | 407 kts | 232° |
| 2026-04-27 18:40 | 39.59295 | 71.01617 | 29947 ft | 407 kts | 232° |
| 2026-04-27 18:41 | 39.55761 | 70.95885 | 29945 ft | 406 kts | 232° |
| 2026-04-27 18:41 | 39.52231 | 70.90172 | 29945 ft | 406 kts | 232° |
| 2026-04-27 18:42 | 39.49868 | 70.86351 | 29944 ft | 406 kts | 233° |
| 2026-04-27 18:42 | 39.45164 | 70.78761 | 29944 ft | 406 kts | 233° |
| 2026-04-27 18:43 | 39.41607 | 70.73093 | 29946 ft | 405 kts | 233° |
| 2026-04-27 18:43 | 39.38068 | 70.67448 | 29944 ft | 405 kts | 233° |
| 2026-04-27 18:44 | 39.34524 | 70.61793 | 29944 ft | 406 kts | 233° |
| 2026-04-27 18:44 | 39.30956 | 70.56110 | 29946 ft | 406 kts | 233° |
| 2026-04-27 18:45 | 39.27410 | 70.50470 | 29944 ft | 406 kts | 233° |
| 2026-04-27 18:45 | 39.23873 | 70.44791 | 29946 ft | 406 kts | 234° |
| 2026-04-27 18:46 | 39.20408 | 70.39040 | 29945 ft | 405 kts | 234° |
| 2026-04-27 18:46 | 39.16935 | 70.33275 | 29919 ft | 406 kts | 233° |
| 2026-04-27 18:47 | 39.13484 | 70.27545 | 29938 ft | 406 kts | 233° |
| 2026-04-27 18:47 | 39.10006 | 70.21795 | 29930 ft | 406 kts | 233° |
| 2026-04-27 18:48 | 39.06553 | 70.16097 | 29925 ft | 406 kts | 233° |
| 2026-04-27 18:48 | 39.03052 | 70.10332 | 29918 ft | 406 kts | 233° |
| 2026-04-27 18:49 | 38.99575 | 70.04618 | 29917 ft | 407 kts | 233° |
| 2026-04-27 18:49 | 38.96084 | 69.98890 | 29918 ft | 408 kts | 233° |
| 2026-04-27 18:50 | 38.92580 | 69.93153 | 29919 ft | 409 kts | 234° |
| 2026-04-27 18:50 | 38.89056 | 69.87397 | 29490 ft | 408 kts | 233° |
| 2026-04-27 18:51 | 38.87296 | 69.84542 | 28629 ft | 412 kts | 233° |
| 2026-04-27 18:51 | 38.85513 | 69.81644 | 27782 ft | 415 kts | 233° |
| 2026-04-27 18:51 | 38.83722 | 69.78730 | 27018 ft | 416 kts | 233° |
| 2026-04-27 18:51 | 38.81926 | 69.75809 | 26432 ft | 412 kts | 233° |
| 2026-04-27 18:52 | 38.80167 | 69.72950 | 25925 ft | 407 kts | 232° |
| 2026-04-27 18:52 | 38.78427 | 69.70122 | 25410 ft | 402 kts | 232° |
| 2026-04-27 18:52 | 38.76706 | 69.67327 | 24880 ft | 398 kts | 232° |
| 2026-04-27 18:53 | 38.73315 | 69.61829 | 23829 ft | 390 kts | 232° |
| 2026-04-27 18:53 | 38.71631 | 69.59102 | 23307 ft | 386 kts | 232° |
| 2026-04-27 18:53 | 38.69969 | 69.56412 | 22785 ft | 382 kts | 232° |
| 2026-04-27 18:53 | 38.68337 | 69.53772 | 22282 ft | 379 kts | 232° |
| 2026-04-27 18:54 | 38.66690 | 69.51112 | 21772 ft | 381 kts | 231° |
| 2026-04-27 18:54 | 38.65032 | 69.48435 | 21264 ft | 387 kts | 231° |
| 2026-04-27 18:54 | 38.63365 | 69.45747 | 20744 ft | 382 kts | 231° |
| 2026-04-27 18:54 | 38.61716 | 69.43090 | 20225 ft | 379 kts | 231° |
| 2026-04-27 18:55 | 38.60104 | 69.40494 | 19724 ft | 375 kts | 231° |
| 2026-04-27 18:55 | 38.58476 | 69.37875 | 19220 ft | 372 kts | 231° |
| 2026-04-27 18:55 | 38.56888 | 69.35321 | 18733 ft | 369 kts | 231° |
| 2026-04-27 18:55 | 38.55313 | 69.32697 | 18225 ft | 366 kts | 237° |
| 2026-04-27 18:56 | 38.54390 | 69.29731 | 17983 ft | 360 kts | 258° |
| 2026-04-27 18:56 | 38.54203 | 69.26535 | 17873 ft | 366 kts | 268° |
| 2026-04-27 18:56 | 38.53950 | 69.23347 | 17850 ft | 355 kts | 251° |
| 2026-04-27 18:56 | 38.52888 | 69.20461 | 17868 ft | 366 kts | 239° |
| 2026-04-27 18:57 | 38.51687 | 69.17522 | 17883 ft | 384 kts | 247° |
| 2026-04-27 18:57 | 38.50998 | 69.14128 | 17929 ft | 401 kts | 262° |
| 2026-04-27 18:57 | 38.50988 | 69.10507 | 17899 ft | 420 kts | 275° |
| 2026-04-27 18:57 | 38.51405 | 69.06685 | 17519 ft | 441 kts | 277° |
| 2026-04-27 18:58 | 38.51865 | 69.02800 | 16451 ft | 429 kts | 278° |
| 2026-04-27 18:58 | 38.52149 | 69.00401 | 16680 ft | 414 kts | 278° |
| 2026-04-27 18:58 | 38.52713 | 68.95541 | 15184 ft | 431 kts | 278° |
| 2026-04-27 18:58 | 38.52988 | 68.91698 | 14023 ft | 436 kts | 269° |
| 2026-04-27 18:59 | 38.52589 | 68.87949 | 13268 ft | 431 kts | 255° |
| 2026-04-27 18:59 | 38.51453 | 68.84459 | 13084 ft | 413 kts | 241° |
| 2026-04-27 18:59 | 38.49780 | 68.81599 | 12919 ft | 397 kts | 227° |
| 2026-04-27 18:59 | 38.47741 | 68.79330 | 12894 ft | 379 kts | 214° |
| 2026-04-27 19:00 | 38.45435 | 68.77903 | 12879 ft | 362 kts | 200° |
| 2026-04-27 19:00 | 38.43084 | 68.76943 | 12858 ft | 345 kts | 194° |
| 2026-04-27 19:00 | 38.40749 | 68.76651 | 12837 ft | 329 kts | 176° |
| 2026-04-27 19:00 | 38.38550 | 68.77266 | 12775 ft | 316 kts | 158° |
| 2026-04-27 19:01 | 38.36688 | 68.78683 | 12567 ft | 309 kts | 138° |
| 2026-04-27 19:01 | 38.35341 | 68.80762 | 12511 ft | 305 kts | 118° |
| 2026-04-27 19:01 | 38.34582 | 68.83315 | 12516 ft | 308 kts | 104° |
| 2026-04-27 19:01 | 38.34083 | 68.85981 | 12491 ft | 309 kts | 102° |
| 2026-04-27 19:02 | 38.33609 | 68.88622 | 12447 ft | 309 kts | 102° |
| 2026-04-27 19:02 | 38.33231 | 68.91335 | 12384 ft | 308 kts | 91° |
| 2026-04-27 19:02 | 38.33443 | 68.94057 | 12334 ft | 308 kts | 78° |
| 2026-04-27 19:02 | 38.33884 | 68.96723 | 12293 ft | 308 kts | 77° |
| 2026-04-27 19:03 | 38.34342 | 68.99363 | 12114 ft | 308 kts | 77° |
| 2026-04-27 19:03 | 38.34821 | 69.02074 | 11605 ft | 310 kts | 77° |
| 2026-04-27 19:03 | 38.35293 | 69.04700 | 11343 ft | 304 kts | 76° |
| 2026-04-27 19:03 | 38.35750 | 69.06399 | 11133 ft | 301 kts | 64° |
| 2026-04-27 19:04 | 38.37123 | 69.09476 | 10678 ft | 298 kts | 59° |
| 2026-04-27 19:04 | 38.38187 | 69.11720 | 10331 ft | 295 kts | 59° |
| 2026-04-27 19:04 | 38.39261 | 69.13980 | 9974 ft | 293 kts | 59° |
| 2026-04-27 19:04 | 38.40299 | 69.16164 | 9705 ft | 288 kts | 59° |
| 2026-04-27 19:05 | 38.41321 | 69.18313 | 9644 ft | 275 kts | 59° |
| 2026-04-27 19:05 | 38.41982 | 69.19701 | 9564 ft | 268 kts | 59° |
| 2026-04-27 19:05 | 38.43235 | 69.22329 | 9350 ft | 257 kts | 59° |
| 2026-04-27 19:05 | 38.44223 | 69.24242 | 9047 ft | 256 kts | 46° |
| 2026-04-27 19:06 | 38.45729 | 69.25343 | 8719 ft | 254 kts | 9° |
| 2026-04-27 19:06 | 38.47463 | 69.25537 | 8542 ft | 246 kts | 6° |
| 2026-04-27 19:06 | 38.49130 | 69.25753 | 8463 ft | 234 kts | 1° |
| 2026-04-27 19:06 | 38.50778 | 69.25555 | 8471 ft | 246 kts | 348° |
| 2026-04-27 19:07 | 38.52457 | 69.24832 | 8510 ft | 270 kts | 333° |
| 2026-04-27 19:07 | 38.54004 | 69.23495 | 8546 ft | 261 kts | 317° |
| 2026-04-27 19:07 | 38.55139 | 69.21774 | 8549 ft | 245 kts | 301° |
| 2026-04-27 19:07 | 38.55827 | 69.19888 | 8590 ft | 227 kts | 286° |
| 2026-04-27 19:08 | 38.56118 | 69.17883 | 8592 ft | 238 kts | 272° |
| 2026-04-27 19:08 | 38.56004 | 69.15735 | 8601 ft | 242 kts | 261° |
| 2026-04-27 19:08 | 38.55772 | 69.13620 | 8581 ft | 244 kts | 261° |
| 2026-04-27 19:08 | 38.55546 | 69.11466 | 8586 ft | 244 kts | 262° |
| 2026-04-27 19:09 | 38.55329 | 69.09346 | 8547 ft | 231 kts | 262° |
| 2026-04-27 19:09 | 38.55132 | 69.07388 | 8494 ft | 215 kts | 262° |
| 2026-04-27 19:09 | 38.54949 | 69.05565 | 8366 ft | 201 kts | 262° |
| 2026-04-27 19:09 | 38.54776 | 69.03827 | 8040 ft | 194 kts | 262° |
| 2026-04-27 19:10 | 38.54605 | 69.02116 | 7567 ft | 195 kts | 263° |
| 2026-04-27 19:10 | 38.54437 | 69.00407 | 7167 ft | 191 kts | 264° |
| 2026-04-27 19:10 | 38.54331 | 68.98718 | 6721 ft | 190 kts | 271° |
| 2026-04-27 19:10 | 38.54335 | 68.97626 | 6563 ft | 181 kts | 271° |
| 2026-04-27 19:11 | 38.54340 | 68.95542 | 6216 ft | 169 kts | 271° |
| 2026-04-27 19:11 | 38.54340 | 68.94053 | 5837 ft | 171 kts | 271° |
| 2026-04-27 19:11 | 38.54330 | 68.92522 | 5358 ft | 176 kts | 270° |
| 2026-04-27 19:11 | 38.54316 | 68.90909 | 4730 ft | 188 kts | 271° |
| 2026-04-27 19:12 | 38.54306 | 68.89233 | 4182 ft | 192 kts | 270° |
| 2026-04-27 19:12 | 38.54305 | 68.87521 | 3619 ft | 196 kts | 272° |
| 2026-04-27 19:12 | 38.54326 | 68.85770 | 3061 ft | 199 kts | 271° |
| 2026-04-27 19:12 | 38.54333 | 68.84014 | 2641 ft | 193 kts | 271° |
| 2026-04-27 19:13 | 38.54338 | 68.82375 | 2582 ft | 164 kts | 271° |
| 2026-04-27 19:13 | 38.54339 | 68.81129 | 2582 ft | 99 kts | 270° |
| 2026-04-27 19:13 | 38.54378 | 68.80723 | 2582 ft | 18 kts | 344° |
| 2026-04-27 19:13 | 38.54411 | 68.80727 | 2582 ft | 1 kts | 24° |
| 2026-04-27 19:14 | 38.54422 | 68.80726 | 2582 ft | 1 kts | 330° |